sensor_id;sensor_type;location;lat;lon;timestamp;temperature;humidity
9151;DHT22;4610;50.006;7.490;2022-09-20T00:00:25;8.10;99.90
9151;DHT22;4610;50.006;7.490;2022-09-20T00:02:52;8.10;99.90
9151;DHT22;4610;50.006;7.490;2022-09-20T00:05:19;8.00;99.90
9151;DHT22;4610;50.006;7.490;2022-09-20T00:07:45;8.00;99.90
9151;DHT22;4610;50.006;7.490;2022-09-20T00:10:12;8.00;99.90
9151;DHT22;4610;50.006;7.490;2022-09-20T00:12:39;7.90;99.90
9151;DHT22;4610;50.006;7.490;2022-09-20T00:15:08;7.90;99.90
9151;DHT22;4610;50.006;7.490;2022-09-20T00:17:35;7.90;99.90
9151;DHT22;4610;50.006;7.490;2022-09-20T00:20:01;8.00;99.90
9151;DHT22;4610;50.006;7.490;2022-09-20T00:22:28;7.90;99.90
9151;DHT22;4610;50.006;7.490;2022-09-20T00:24:55;7.80;99.90
9151;DHT22;4610;50.006;7.490;2022-09-20T00:27:22;7.80;99.90
9151;DHT22;4610;50.006;7.490;2022-09-20T00:29:49;7.80;99.90
9151;DHT22;4610;50.006;7.490;2022-09-20T00:32:17;7.80;99.90
9151;DHT22;4610;50.006;7.490;2022-09-20T00:34:43;7.80;99.90
9151;DHT22;4610;50.006;7.490;2022-09-20T00:37:27;7.80;99.90
9151;DHT22;4610;50.006;7.490;2022-09-20T00:39:54;7.80;99.90
9151;DHT22;4610;50.006;7.490;2022-09-20T00:42:25;7.90;99.90
9151;DHT22;4610;50.006;7.490;2022-09-20T00:44:57;7.80;99.90
9151;DHT22;4610;50.006;7.490;2022-09-20T00:47:32;7.80;99.90
9151;DHT22;4610;50.006;7.490;2022-09-20T00:50:05;7.90;99.90
9151;DHT22;4610;50.006;7.490;2022-09-20T00:52:33;7.90;99.90
9151;DHT22;4610;50.006;7.490;2022-09-20T00:55:03;8.00;99.90
9151;DHT22;4610;50.006;7.490;2022-09-20T00:57:32;8.00;99.90
9151;DHT22;4610;50.006;7.490;2022-09-20T01:00:02;8.00;99.90
9151;DHT22;4610;50.006;7.490;2022-09-20T01:02:32;8.00;99.90
9151;DHT22;4610;50.006;7.490;2022-09-20T01:05:00;8.00;99.90
9151;DHT22;4610;50.006;7.490;2022-09-20T01:07:27;8.10;99.90
9151;DHT22;4610;50.006;7.490;2022-09-20T01:09:54;8.10;99.90
9151;DHT22;4610;50.006;7.490;2022-09-20T01:12:24;8.00;99.90
9151;DHT22;4610;50.006;7.490;2022-09-20T01:14:52;7.90;99.90
9151;DHT22;4610;50.006;7.490;2022-09-20T01:17:23;7.80;99.90
9151;DHT22;4610;50.006;7.490;2022-09-20T01:20:03;7.70;99.90
9151;DHT22;4610;50.006;7.490;2022-09-20T01:22:40;7.60;99.90
9151;DHT22;4610;50.006;7.490;2022-09-20T01:25:13;7.50;99.90
9151;DHT22;4610;50.006;7.490;2022-09-20T01:27:45;7.50;99.90
9151;DHT22;4610;50.006;7.490;2022-09-20T01:30:14;7.50;99.90
9151;DHT22;4610;50.006;7.490;2022-09-20T01:32:50;7.60;99.90
9151;DHT22;4610;50.006;7.490;2022-09-20T01:35:23;7.60;99.90
9151;DHT22;4610;50.006;7.490;2022-09-20T01:38:04;7.60;99.90
9151;DHT22;4610;50.006;7.490;2022-09-20T01:40:40;7.50;99.90
9151;DHT22;4610;50.006;7.490;2022-09-20T01:43:15;7.50;99.90
9151;DHT22;4610;50.006;7.490;2022-09-20T01:45:45;7.40;99.90
9151;DHT22;4610;50.006;7.490;2022-09-20T01:48:20;7.40;99.90
9151;DHT22;4610;50.006;7.490;2022-09-20T01:57:22;7.40;99.90
9151;DHT22;4610;50.006;7.490;2022-09-20T02:00:11;7.40;99.90
9151;DHT22;4610;50.006;7.490;2022-09-20T02:05:52;7.50;99.90
9151;DHT22;4610;50.006;7.490;2022-09-20T02:08:41;7.50;99.90
9151;DHT22;4610;50.006;7.490;2022-09-20T02:11:15;7.60;99.90
9151;DHT22;4610;50.006;7.490;2022-09-20T02:14:03;7.60;99.90
9151;DHT22;4610;50.006;7.490;2022-09-20T02:16:43;7.50;99.90
9151;DHT22;4610;50.006;7.490;2022-09-20T02:22:24;7.40;99.90
9151;DHT22;4610;50.006;7.490;2022-09-20T02:24:57;7.40;99.90
9151;DHT22;4610;50.006;7.490;2022-09-20T02:27:31;7.30;99.90
9151;DHT22;4610;50.006;7.490;2022-09-20T02:30:12;7.30;99.90
9151;DHT22;4610;50.006;7.490;2022-09-20T02:32:55;7.30;99.90
9151;DHT22;4610;50.006;7.490;2022-09-20T02:35:40;7.20;99.90
9151;DHT22;4610;50.006;7.490;2022-09-20T02:38:21;7.20;99.90
9151;DHT22;4610;50.006;7.490;2022-09-20T02:41:26;7.20;99.90
9151;DHT22;4610;50.006;7.490;2022-09-20T02:43:59;7.20;99.90
9151;DHT22;4610;50.006;7.490;2022-09-20T02:46:29;7.00;99.90
9151;DHT22;4610;50.006;7.490;2022-09-20T02:49:04;7.20;99.90
9151;DHT22;4610;50.006;7.490;2022-09-20T02:51:38;7.20;99.90
9151;DHT22;4610;50.006;7.490;2022-09-20T02:54:16;7.20;99.90
9151;DHT22;4610;50.006;7.490;2022-09-20T02:56:53;7.20;99.90
9151;DHT22;4610;50.006;7.490;2022-09-20T02:59:26;7.10;99.90
9151;DHT22;4610;50.006;7.490;2022-09-20T03:02:03;7.20;99.90
9151;DHT22;4610;50.006;7.490;2022-09-20T03:04:44;7.20;99.90
9151;DHT22;4610;50.006;7.490;2022-09-20T03:07:21;7.20;99.90
9151;DHT22;4610;50.006;7.490;2022-09-20T03:09:57;7.20;99.90
9151;DHT22;4610;50.006;7.490;2022-09-20T03:12:35;7.10;99.90
9151;DHT22;4610;50.006;7.490;2022-09-20T03:15:14;7.00;99.90
9151;DHT22;4610;50.006;7.490;2022-09-20T03:17:47;7.00;99.90
9151;DHT22;4610;50.006;7.490;2022-09-20T03:20:32;7.00;99.90
9151;DHT22;4610;50.006;7.490;2022-09-20T03:23:05;6.90;99.90
9151;DHT22;4610;50.006;7.490;2022-09-20T03:25:46;7.00;99.90
9151;DHT22;4610;50.006;7.490;2022-09-20T03:28:28;7.00;99.90
9151;DHT22;4610;50.006;7.490;2022-09-20T03:31:06;7.00;99.90
9151;DHT22;4610;50.006;7.490;2022-09-20T03:33:43;6.90;99.90
9151;DHT22;4610;50.006;7.490;2022-09-20T03:36:24;6.90;99.90
9151;DHT22;4610;50.006;7.490;2022-09-20T03:39:24;6.90;99.90
9151;DHT22;4610;50.006;7.490;2022-09-20T03:42:04;6.90;99.90
9151;DHT22;4610;50.006;7.490;2022-09-20T03:44:58;6.80;99.90
9151;DHT22;4610;50.006;7.490;2022-09-20T03:47:41;6.80;99.90
9151;DHT22;4610;50.006;7.490;2022-09-20T03:50:22;6.70;99.90
9151;DHT22;4610;50.006;7.490;2022-09-20T03:53:23;6.70;99.90
9151;DHT22;4610;50.006;7.490;2022-09-20T03:56:03;6.60;99.90
9151;DHT22;4610;50.006;7.490;2022-09-20T03:58:50;6.60;99.90
9151;DHT22;4610;50.006;7.490;2022-09-20T04:01:36;6.60;99.90
9151;DHT22;4610;50.006;7.490;2022-09-20T04:04:12;6.70;99.90
9151;DHT22;4610;50.006;7.490;2022-09-20T04:06:56;6.70;99.90
9151;DHT22;4610;50.006;7.490;2022-09-20T04:09:50;6.70;99.90
9151;DHT22;4610;50.006;7.490;2022-09-20T04:12:27;6.70;99.90
9151;DHT22;4610;50.006;7.490;2022-09-20T04:15:03;6.80;99.90
9151;DHT22;4610;50.006;7.490;2022-09-20T04:17:40;6.80;99.90
9151;DHT22;4610;50.006;7.490;2022-09-20T04:20:16;6.80;99.90
9151;DHT22;4610;50.006;7.490;2022-09-20T04:22:47;6.70;99.90
9151;DHT22;4610;50.006;7.490;2022-09-20T04:25:21;6.70;99.90
9151;DHT22;4610;50.006;7.490;2022-09-20T04:27:51;6.60;99.90
9151;DHT22;4610;50.006;7.490;2022-09-20T04:30:21;6.60;99.90
9151;DHT22;4610;50.006;7.490;2022-09-20T04:32:54;6.70;99.90
9151;DHT22;4610;50.006;7.490;2022-09-20T04:35:32;6.60;99.90
9151;DHT22;4610;50.006;7.490;2022-09-20T04:38:20;6.60;99.90
9151;DHT22;4610;50.006;7.490;2022-09-20T04:40:58;6.60;99.90
9151;DHT22;4610;50.006;7.490;2022-09-20T04:44:08;6.60;99.90
9151;DHT22;4610;50.006;7.490;2022-09-20T04:46:59;6.80;99.90
9151;DHT22;4610;50.006;7.490;2022-09-20T04:52:59;6.80;99.90
9151;DHT22;4610;50.006;7.490;2022-09-20T04:55:48;6.90;99.90
9151;DHT22;4610;50.006;7.490;2022-09-20T04:58:36;6.90;99.90
9151;DHT22;4610;50.006;7.490;2022-09-20T05:10:43;7.10;99.90
9151;DHT22;4610;50.006;7.490;2022-09-20T05:13:20;7.10;99.90
9151;DHT22;4610;50.006;7.490;2022-09-20T05:15:57;7.10;99.90
9151;DHT22;4610;50.006;7.490;2022-09-20T05:21:51;7.20;99.90
9151;DHT22;4610;50.006;7.490;2022-09-20T05:27:32;7.30;99.90
9151;DHT22;4610;50.006;7.490;2022-09-20T05:30:03;7.40;99.90
9151;DHT22;4610;50.006;7.490;2022-09-20T05:32:40;7.40;99.90
9151;DHT22;4610;50.006;7.490;2022-09-20T05:35:16;8.60;99.90
9151;DHT22;4610;50.006;7.490;2022-09-20T05:37:49;7.60;99.90
9151;DHT22;4610;50.006;7.490;2022-09-20T05:40:24;7.60;99.90
9151;DHT22;4610;50.006;7.490;2022-09-20T05:43:01;7.70;99.90
9151;DHT22;4610;50.006;7.490;2022-09-20T05:46:01;8.10;99.90
9151;DHT22;4610;50.006;7.490;2022-09-20T05:48:36;8.10;99.90
9151;DHT22;4610;50.006;7.490;2022-09-20T05:51:08;7.90;99.90
9151;DHT22;4610;50.006;7.490;2022-09-20T05:56:43;8.00;99.90
9151;DHT22;4610;50.006;7.490;2022-09-20T05:59:24;8.00;99.90
9151;DHT22;4610;50.006;7.490;2022-09-20T06:02:01;8.00;99.90
9151;DHT22;4610;50.006;7.490;2022-09-20T06:04:42;8.00;99.90
9151;DHT22;4610;50.006;7.490;2022-09-20T06:07:18;8.10;99.90
9151;DHT22;4610;50.006;7.490;2022-09-20T06:10:14;8.10;99.90
9151;DHT22;4610;50.006;7.490;2022-09-20T06:12:52;8.10;99.90
9151;DHT22;4610;50.006;7.490;2022-09-20T06:15:25;8.20;99.90
9151;DHT22;4610;50.006;7.490;2022-09-20T06:17:58;8.20;99.90
9151;DHT22;4610;50.006;7.490;2022-09-20T06:20:34;8.20;99.90
9151;DHT22;4610;50.006;7.490;2022-09-20T06:23:03;8.30;99.90
9151;DHT22;4610;50.006;7.490;2022-09-20T06:25:36;8.30;99.90
9151;DHT22;4610;50.006;7.490;2022-09-20T06:28:12;8.30;99.90
9151;DHT22;4610;50.006;7.490;2022-09-20T06:30:42;8.40;99.90
9151;DHT22;4610;50.006;7.490;2022-09-20T06:33:14;8.70;99.90
9151;DHT22;4610;50.006;7.490;2022-09-20T06:35:46;8.80;99.90
9151;DHT22;4610;50.006;7.490;2022-09-20T06:38:42;10.00;99.90
9151;DHT22;4610;50.006;7.490;2022-09-20T06:41:30;9.30;99.90
9151;DHT22;4610;50.006;7.490;2022-09-20T06:44:00;9.10;99.90
9151;DHT22;4610;50.006;7.490;2022-09-20T06:46:29;9.50;99.90
9151;DHT22;4610;50.006;7.490;2022-09-20T06:48:57;9.50;99.90
9151;DHT22;4610;50.006;7.490;2022-09-20T06:51:27;9.50;99.90
9151;DHT22;4610;50.006;7.490;2022-09-20T06:53:55;9.50;99.90
9151;DHT22;4610;50.006;7.490;2022-09-20T06:56:24;9.60;99.90
9151;DHT22;4610;50.006;7.490;2022-09-20T06:58:52;9.70;99.90
9151;DHT22;4610;50.006;7.490;2022-09-20T07:01:19;9.80;99.90
9151;DHT22;4610;50.006;7.490;2022-09-20T07:03:46;9.90;99.90
9151;DHT22;4610;50.006;7.490;2022-09-20T07:06:13;9.90;99.90
9151;DHT22;4610;50.006;7.490;2022-09-20T07:08:42;9.90;99.90
9151;DHT22;4610;50.006;7.490;2022-09-20T07:11:12;10.00;99.90
9151;DHT22;4610;50.006;7.490;2022-09-20T07:13:41;10.10;99.90
9151;DHT22;4610;50.006;7.490;2022-09-20T07:16:11;10.30;99.90
9151;DHT22;4610;50.006;7.490;2022-09-20T07:18:38;10.90;99.90
9151;DHT22;4610;50.006;7.490;2022-09-20T07:21:06;10.90;99.90
9151;DHT22;4610;50.006;7.490;2022-09-20T07:23:32;10.90;99.90
9151;DHT22;4610;50.006;7.490;2022-09-20T07:26:01;10.90;99.90
9151;DHT22;4610;50.006;7.490;2022-09-20T07:28:28;10.90;99.90
9151;DHT22;4610;50.006;7.490;2022-09-20T07:30:55;10.90;99.90
9151;DHT22;4610;50.006;7.490;2022-09-20T07:33:21;11.00;99.90
9151;DHT22;4610;50.006;7.490;2022-09-20T07:35:50;11.00;99.90
9151;DHT22;4610;50.006;7.490;2022-09-20T07:38:18;11.10;99.90
9151;DHT22;4610;50.006;7.490;2022-09-20T07:40:45;11.30;99.90
9151;DHT22;4610;50.006;7.490;2022-09-20T07:43:20;11.40;99.90
9151;DHT22;4610;50.006;7.490;2022-09-20T07:45:49;11.50;99.90
9151;DHT22;4610;50.006;7.490;2022-09-20T07:48:19;11.70;99.90
9151;DHT22;4610;50.006;7.490;2022-09-20T07:50:50;11.80;99.90
9151;DHT22;4610;50.006;7.490;2022-09-20T07:53:17;11.80;99.90
9151;DHT22;4610;50.006;7.490;2022-09-20T07:55:55;11.90;99.90
9151;DHT22;4610;50.006;7.490;2022-09-20T07:58:23;12.10;99.90
9151;DHT22;4610;50.006;7.490;2022-09-20T08:00:51;12.20;99.90
9151;DHT22;4610;50.006;7.490;2022-09-20T08:03:18;12.40;99.90
9151;DHT22;4610;50.006;7.490;2022-09-20T08:05:45;12.40;99.90
9151;DHT22;4610;50.006;7.490;2022-09-20T08:08:13;12.50;99.90
9151;DHT22;4610;50.006;7.490;2022-09-20T08:10:41;12.70;99.90
9151;DHT22;4610;50.006;7.490;2022-09-20T08:13:08;12.80;99.90
9151;DHT22;4610;50.006;7.490;2022-09-20T08:15:37;13.00;99.90
9151;DHT22;4610;50.006;7.490;2022-09-20T08:18:05;13.10;99.90
9151;DHT22;4610;50.006;7.490;2022-09-20T08:20:34;13.10;99.90
9151;DHT22;4610;50.006;7.490;2022-09-20T08:23:02;13.30;99.90
9151;DHT22;4610;50.006;7.490;2022-09-20T08:25:29;13.50;99.90
9151;DHT22;4610;50.006;7.490;2022-09-20T08:27:56;13.70;99.90
9151;DHT22;4610;50.006;7.490;2022-09-20T08:30:22;14.00;99.90
9151;DHT22;4610;50.006;7.490;2022-09-20T08:32:51;14.10;99.90
9151;DHT22;4610;50.006;7.490;2022-09-20T08:35:20;14.20;99.90
9151;DHT22;4610;50.006;7.490;2022-09-20T08:37:50;14.40;99.90
9151;DHT22;4610;50.006;7.490;2022-09-20T08:40:19;14.50;99.90
9151;DHT22;4610;50.006;7.490;2022-09-20T08:42:48;14.50;99.90
9151;DHT22;4610;50.006;7.490;2022-09-20T08:45:17;14.40;99.90
9151;DHT22;4610;50.006;7.490;2022-09-20T08:47:47;14.20;99.90
9151;DHT22;4610;50.006;7.490;2022-09-20T08:50:16;14.10;99.90
9151;DHT22;4610;50.006;7.490;2022-09-20T08:52:45;14.20;99.90
9151;DHT22;4610;50.006;7.490;2022-09-20T08:55:14;14.10;99.90
9151;DHT22;4610;50.006;7.490;2022-09-20T08:57:42;14.00;99.90
9151;DHT22;4610;50.006;7.490;2022-09-20T09:00:16;13.90;99.90
9151;DHT22;4610;50.006;7.490;2022-09-20T09:02:43;14.00;99.90
9151;DHT22;4610;50.006;7.490;2022-09-20T09:05:28;14.10;99.90
9151;DHT22;4610;50.006;7.490;2022-09-20T09:07:57;14.00;99.90
9151;DHT22;4610;50.006;7.490;2022-09-20T09:10:26;13.90;99.90
9151;DHT22;4610;50.006;7.490;2022-09-20T09:12:54;14.00;99.90
9151;DHT22;4610;50.006;7.490;2022-09-20T09:15:26;14.20;99.90
9151;DHT22;4610;50.006;7.490;2022-09-20T09:17:55;14.00;99.90
9151;DHT22;4610;50.006;7.490;2022-09-20T09:20:23;13.90;99.90
9151;DHT22;4610;50.006;7.490;2022-09-20T09:22:59;13.80;99.90
9151;DHT22;4610;50.006;7.490;2022-09-20T09:25:28;13.80;99.90
9151;DHT22;4610;50.006;7.490;2022-09-20T09:28:01;13.80;99.90
9151;DHT22;4610;50.006;7.490;2022-09-20T09:30:30;14.00;99.90
9151;DHT22;4610;50.006;7.490;2022-09-20T09:33:21;14.20;99.90
9151;DHT22;4610;50.006;7.490;2022-09-20T09:35:53;14.40;99.90
9151;DHT22;4610;50.006;7.490;2022-09-20T09:38:24;14.60;99.90
9151;DHT22;4610;50.006;7.490;2022-09-20T09:40:53;14.70;99.90
9151;DHT22;4610;50.006;7.490;2022-09-20T09:43:22;14.80;99.90
9151;DHT22;4610;50.006;7.490;2022-09-20T09:45:52;14.80;99.90
9151;DHT22;4610;50.006;7.490;2022-09-20T09:48:22;15.00;99.90
9151;DHT22;4610;50.006;7.490;2022-09-20T09:50:51;15.10;99.90
9151;DHT22;4610;50.006;7.490;2022-09-20T09:53:33;15.40;99.90
9151;DHT22;4610;50.006;7.490;2022-09-20T10:01:53;14.80;99.90
9151;DHT22;4610;50.006;7.490;2022-09-20T10:04:30;14.70;99.90
9151;DHT22;4610;50.006;7.490;2022-09-20T10:07:07;14.40;99.90
9151;DHT22;4610;50.006;7.490;2022-09-20T10:09:53;14.40;99.90
9151;DHT22;4610;50.006;7.490;2022-09-20T10:12:41;14.30;99.90
9151;DHT22;4610;50.006;7.490;2022-09-20T10:15:27;14.40;99.90
9151;DHT22;4610;50.006;7.490;2022-09-20T10:18:07;14.60;99.90
9151;DHT22;4610;50.006;7.490;2022-09-20T10:20:51;14.70;99.90
9151;DHT22;4610;50.006;7.490;2022-09-20T10:23:32;14.80;99.90
9151;DHT22;4610;50.006;7.490;2022-09-20T10:26:15;14.80;99.90
9151;DHT22;4610;50.006;7.490;2022-09-20T10:28:52;14.80;99.90
9151;DHT22;4610;50.006;7.490;2022-09-20T10:31:31;14.80;99.90
9151;DHT22;4610;50.006;7.490;2022-09-20T10:34:24;14.80;99.90
9151;DHT22;4610;50.006;7.490;2022-09-20T10:36:56;14.60;99.90
9151;DHT22;4610;50.006;7.490;2022-09-20T10:39:27;14.70;99.90
9151;DHT22;4610;50.006;7.490;2022-09-20T10:42:06;14.80;99.90
9151;DHT22;4610;50.006;7.490;2022-09-20T10:45:04;14.80;99.90
9151;DHT22;4610;50.006;7.490;2022-09-20T10:47:37;14.70;99.90
9151;DHT22;4610;50.006;7.490;2022-09-20T10:50:18;14.70;99.90
9151;DHT22;4610;50.006;7.490;2022-09-20T10:52:55;14.70;99.90
9151;DHT22;4610;50.006;7.490;2022-09-20T10:55:33;14.70;99.90
9151;DHT22;4610;50.006;7.490;2022-09-20T10:58:28;14.90;99.90
9151;DHT22;4610;50.006;7.490;2022-09-20T11:01:01;15.00;99.90
9151;DHT22;4610;50.006;7.490;2022-09-20T11:03:57;15.20;99.90
9151;DHT22;4610;50.006;7.490;2022-09-20T11:06:37;15.30;99.90
9151;DHT22;4610;50.006;7.490;2022-09-20T11:09:08;15.30;99.90
9151;DHT22;4610;50.006;7.490;2022-09-20T11:11:38;15.20;99.90
9151;DHT22;4610;50.006;7.490;2022-09-20T11:14:12;15.00;99.90
9151;DHT22;4610;50.006;7.490;2022-09-20T11:16:44;14.60;99.90
9151;DHT22;4610;50.006;7.490;2022-09-20T11:19:21;14.30;99.90
9151;DHT22;4610;50.006;7.490;2022-09-20T11:21:54;14.10;99.90
9151;DHT22;4610;50.006;7.490;2022-09-20T11:24:29;14.00;99.90
9151;DHT22;4610;50.006;7.490;2022-09-20T11:26:59;14.00;99.90
9151;DHT22;4610;50.006;7.490;2022-09-20T11:29:32;14.00;99.90
9151;DHT22;4610;50.006;7.490;2022-09-20T11:32:05;13.80;99.90
9151;DHT22;4610;50.006;7.490;2022-09-20T11:34:37;13.70;99.90
9151;DHT22;4610;50.006;7.490;2022-09-20T11:37:08;13.40;99.90
9151;DHT22;4610;50.006;7.490;2022-09-20T11:39:38;13.20;99.90
9151;DHT22;4610;50.006;7.490;2022-09-20T11:42:12;13.00;99.90
9151;DHT22;4610;50.006;7.490;2022-09-20T11:44:43;12.80;99.90
9151;DHT22;4610;50.006;7.490;2022-09-20T11:47:16;12.80;99.90
9151;DHT22;4610;50.006;7.490;2022-09-20T11:49:54;12.80;99.90
9151;DHT22;4610;50.006;7.490;2022-09-20T11:52:38;12.80;99.90
9151;DHT22;4610;50.006;7.490;2022-09-20T11:55:18;12.90;99.90
9151;DHT22;4610;50.006;7.490;2022-09-20T11:57:58;12.90;99.90
9151;DHT22;4610;50.006;7.490;2022-09-20T12:00:30;13.00;99.90
9151;DHT22;4610;50.006;7.490;2022-09-20T12:02:59;13.00;99.90
9151;DHT22;4610;50.006;7.490;2022-09-20T12:05:30;13.10;99.90
9151;DHT22;4610;50.006;7.490;2022-09-20T12:08:00;13.20;99.90
9151;DHT22;4610;50.006;7.490;2022-09-20T12:10:29;13.20;99.90
9151;DHT22;4610;50.006;7.490;2022-09-20T12:12:59;13.10;99.90
9151;DHT22;4610;50.006;7.490;2022-09-20T12:15:30;13.20;99.90
9151;DHT22;4610;50.006;7.490;2022-09-20T12:18:27;13.30;99.90
9151;DHT22;4610;50.006;7.490;2022-09-20T12:21:09;13.30;99.90
9151;DHT22;4610;50.006;7.490;2022-09-20T12:26:46;13.60;99.90
9151;DHT22;4610;50.006;7.490;2022-09-20T12:41:11;14.30;99.90
9151;DHT22;4610;50.006;7.490;2022-09-20T12:43:49;14.30;99.90
9151;DHT22;4610;50.006;7.490;2022-09-20T12:46:21;14.40;99.90
9151;DHT22;4610;50.006;7.490;2022-09-20T12:48:50;14.50;99.90
9151;DHT22;4610;50.006;7.490;2022-09-20T12:51:23;14.50;99.90
9151;DHT22;4610;50.006;7.490;2022-09-20T12:54:10;14.60;99.90
9151;DHT22;4610;50.006;7.490;2022-09-20T12:56:39;14.70;99.90
9151;DHT22;4610;50.006;7.490;2022-09-20T12:59:20;14.60;99.90
9151;DHT22;4610;50.006;7.490;2022-09-20T13:01:47;14.60;99.90
9151;DHT22;4610;50.006;7.490;2022-09-20T13:07:45;14.40;99.90
9151;DHT22;4610;50.006;7.490;2022-09-20T13:10:24;14.50;99.90
9151;DHT22;4610;50.006;7.490;2022-09-20T13:12:56;14.50;99.90
9151;DHT22;4610;50.006;7.490;2022-09-20T13:15:24;14.60;99.90
9151;DHT22;4610;50.006;7.490;2022-09-20T13:17:54;14.80;99.90
9151;DHT22;4610;50.006;7.490;2022-09-20T13:20:23;14.90;99.90
9151;DHT22;4610;50.006;7.490;2022-09-20T13:22:53;15.00;99.90
9151;DHT22;4610;50.006;7.490;2022-09-20T13:25:20;15.00;99.90
9151;DHT22;4610;50.006;7.490;2022-09-20T13:27:51;15.10;99.90
9151;DHT22;4610;50.006;7.490;2022-09-20T13:30:21;15.10;99.90
9151;DHT22;4610;50.006;7.490;2022-09-20T13:32:49;15.20;99.90
9151;DHT22;4610;50.006;7.490;2022-09-20T13:35:18;15.20;99.90
9151;DHT22;4610;50.006;7.490;2022-09-20T13:37:50;15.40;99.90
9151;DHT22;4610;50.006;7.490;2022-09-20T13:40:20;15.40;99.90
9151;DHT22;4610;50.006;7.490;2022-09-20T13:42:51;15.40;99.90
9151;DHT22;4610;50.006;7.490;2022-09-20T13:45:19;15.40;99.90
9151;DHT22;4610;50.006;7.490;2022-09-20T13:47:49;15.10;99.90
9151;DHT22;4610;50.006;7.490;2022-09-20T13:50:22;14.60;99.90
9151;DHT22;4610;50.006;7.490;2022-09-20T13:52:50;14.30;99.90
9151;DHT22;4610;50.006;7.490;2022-09-20T13:55:26;14.10;99.90
9151;DHT22;4610;50.006;7.490;2022-09-20T13:57:56;13.70;99.90
9151;DHT22;4610;50.006;7.490;2022-09-20T14:00:23;13.50;99.90
9151;DHT22;4610;50.006;7.490;2022-09-20T14:02:53;13.40;99.90
9151;DHT22;4610;50.006;7.490;2022-09-20T14:05:23;13.40;99.90
9151;DHT22;4610;50.006;7.490;2022-09-20T14:07:51;13.40;99.90
9151;DHT22;4610;50.006;7.490;2022-09-20T14:10:29;13.50;99.90
9151;DHT22;4610;50.006;7.490;2022-09-20T14:12:57;13.50;99.90
9151;DHT22;4610;50.006;7.490;2022-09-20T14:15:29;13.60;99.90
9151;DHT22;4610;50.006;7.490;2022-09-20T14:17:56;13.70;99.90
9151;DHT22;4610;50.006;7.490;2022-09-20T14:20:24;14.50;99.90
9151;DHT22;4610;50.006;7.490;2022-09-20T14:22:51;14.60;99.90
9151;DHT22;4610;50.006;7.490;2022-09-20T14:25:20;14.40;99.90
9151;DHT22;4610;50.006;7.490;2022-09-20T14:28:12;14.40;99.90
9151;DHT22;4610;50.006;7.490;2022-09-20T14:30:41;14.30;99.90
9151;DHT22;4610;50.006;7.490;2022-09-20T14:33:14;14.20;99.90
9151;DHT22;4610;50.006;7.490;2022-09-20T14:35:46;14.80;99.90
9151;DHT22;4610;50.006;7.490;2022-09-20T14:38:14;14.10;99.90
9151;DHT22;4610;50.006;7.490;2022-09-20T14:40:42;14.40;99.90
9151;DHT22;4610;50.006;7.490;2022-09-20T14:43:23;14.70;99.90
9151;DHT22;4610;50.006;7.490;2022-09-20T14:45:53;14.70;99.90
9151;DHT22;4610;50.006;7.490;2022-09-20T14:48:31;14.60;99.90
9151;DHT22;4610;50.006;7.490;2022-09-20T14:51:10;14.40;99.90
9151;DHT22;4610;50.006;7.490;2022-09-20T14:53:37;14.30;99.90
9151;DHT22;4610;50.006;7.490;2022-09-20T14:56:09;14.20;99.90
9151;DHT22;4610;50.006;7.490;2022-09-20T14:59:03;14.20;99.90
9151;DHT22;4610;50.006;7.490;2022-09-20T15:01:31;14.10;99.90
9151;DHT22;4610;50.006;7.490;2022-09-20T15:04:05;14.10;99.90
9151;DHT22;4610;50.006;7.490;2022-09-20T15:06:34;14.10;99.90
9151;DHT22;4610;50.006;7.490;2022-09-20T15:09:01;14.00;99.90
9151;DHT22;4610;50.006;7.490;2022-09-20T15:11:28;14.00;99.90
9151;DHT22;4610;50.006;7.490;2022-09-20T15:13:54;14.00;99.90
9151;DHT22;4610;50.006;7.490;2022-09-20T15:18:50;13.90;99.90
9151;DHT22;4610;50.006;7.490;2022-09-20T15:21:16;13.80;99.90
9151;DHT22;4610;50.006;7.490;2022-09-20T15:23:43;13.90;99.90
9151;DHT22;4610;50.006;7.490;2022-09-20T15:26:11;14.00;99.90
9151;DHT22;4610;50.006;7.490;2022-09-20T15:28:39;14.00;99.90
9151;DHT22;4610;50.006;7.490;2022-09-20T15:31:06;14.00;99.90
9151;DHT22;4610;50.006;7.490;2022-09-20T15:43:26;14.10;99.90
9151;DHT22;4610;50.006;7.490;2022-09-20T15:45:57;13.00;99.90
9151;DHT22;4610;50.006;7.490;2022-09-20T15:48:26;13.70;99.90
9151;DHT22;4610;50.006;7.490;2022-09-20T15:51:03;13.70;99.90
9151;DHT22;4610;50.006;7.490;2022-09-20T15:53:32;13.60;99.90
9151;DHT22;4610;50.006;7.490;2022-09-20T15:56:00;13.60;99.90
9151;DHT22;4610;50.006;7.490;2022-09-20T15:58:28;13.40;99.90
9151;DHT22;4610;50.006;7.490;2022-09-20T16:01:01;13.30;99.90
9151;DHT22;4610;50.006;7.490;2022-09-20T16:03:30;13.20;99.90
9151;DHT22;4610;50.006;7.490;2022-09-20T16:05:58;13.10;99.90
9151;DHT22;4610;50.006;7.490;2022-09-20T16:08:30;13.00;99.90
9151;DHT22;4610;50.006;7.490;2022-09-20T16:10:57;13.00;99.90
9151;DHT22;4610;50.006;7.490;2022-09-20T16:13:24;13.00;99.90
9151;DHT22;4610;50.006;7.490;2022-09-20T16:15:55;13.00;99.90
9151;DHT22;4610;50.006;7.490;2022-09-20T16:18:22;13.00;99.90
9151;DHT22;4610;50.006;7.490;2022-09-20T16:21:07;13.00;99.90
9151;DHT22;4610;50.006;7.490;2022-09-20T16:23:39;13.00;99.90
9151;DHT22;4610;50.006;7.490;2022-09-20T16:26:07;13.10;99.90
9151;DHT22;4610;50.006;7.490;2022-09-20T16:28:37;13.10;99.90
9151;DHT22;4610;50.006;7.490;2022-09-20T16:31:04;13.20;99.90
9151;DHT22;4610;50.006;7.490;2022-09-20T16:33:31;13.20;99.90
9151;DHT22;4610;50.006;7.490;2022-09-20T16:35:59;13.20;99.90
9151;DHT22;4610;50.006;7.490;2022-09-20T16:38:26;13.20;99.90
9151;DHT22;4610;50.006;7.490;2022-09-20T16:40:54;13.20;99.90
9151;DHT22;4610;50.006;7.490;2022-09-20T16:43:22;13.20;99.90
9151;DHT22;4610;50.006;7.490;2022-09-20T16:45:58;13.10;99.90
9151;DHT22;4610;50.006;7.490;2022-09-20T16:48:26;13.00;99.90
9151;DHT22;4610;50.006;7.490;2022-09-20T16:50:55;13.00;99.90
9151;DHT22;4610;50.006;7.490;2022-09-20T16:53:21;12.90;99.90
9151;DHT22;4610;50.006;7.490;2022-09-20T16:55:48;13.60;99.90
9151;DHT22;4610;50.006;7.490;2022-09-20T16:58:16;12.90;99.90
9151;DHT22;4610;50.006;7.490;2022-09-20T17:00:44;12.90;99.90
9151;DHT22;4610;50.006;7.490;2022-09-20T17:03:11;12.80;99.90
9151;DHT22;4610;50.006;7.490;2022-09-20T17:05:37;12.80;99.90
9151;DHT22;4610;50.006;7.490;2022-09-20T17:08:06;12.80;99.90
9151;DHT22;4610;50.006;7.490;2022-09-20T17:10:34;12.70;99.90
9151;DHT22;4610;50.006;7.490;2022-09-20T17:13:01;12.70;99.90
9151;DHT22;4610;50.006;7.490;2022-09-20T17:15:29;12.60;99.90
9151;DHT22;4610;50.006;7.490;2022-09-20T17:17:55;12.60;99.90
9151;DHT22;4610;50.006;7.490;2022-09-20T17:20:23;12.50;99.90
9151;DHT22;4610;50.006;7.490;2022-09-20T17:22:51;12.40;99.90
9151;DHT22;4610;50.006;7.490;2022-09-20T17:25:19;12.40;99.90
9151;DHT22;4610;50.006;7.490;2022-09-20T17:27:45;12.40;99.90
9151;DHT22;4610;50.006;7.490;2022-09-20T17:30:13;12.40;99.90
9151;DHT22;4610;50.006;7.490;2022-09-20T17:32:43;12.40;99.90
9151;DHT22;4610;50.006;7.490;2022-09-20T17:35:12;12.40;99.90
9151;DHT22;4610;50.006;7.490;2022-09-20T17:37:41;12.40;99.90
9151;DHT22;4610;50.006;7.490;2022-09-20T17:40:08;12.30;99.90
9151;DHT22;4610;50.006;7.490;2022-09-20T17:42:35;12.20;99.90
9151;DHT22;4610;50.006;7.490;2022-09-20T17:45:04;12.10;99.90
9151;DHT22;4610;50.006;7.490;2022-09-20T17:47:31;12.10;99.90
9151;DHT22;4610;50.006;7.490;2022-09-20T17:49:59;12.10;99.90
9151;DHT22;4610;50.006;7.490;2022-09-20T17:52:26;12.00;99.90
9151;DHT22;4610;50.006;7.490;2022-09-20T17:54:53;11.80;99.90
9151;DHT22;4610;50.006;7.490;2022-09-20T17:57:20;11.80;99.90